DEECK VNLK-VNLK
Flight info
| Callsign | DEECK |
|---|---|
| Flight time | 0h 22m |
| Altitude | 12000 |
| Route | DCT |
| Aircraft | PC6/L-S/L |
Departure
| Time | 2026-02-06 11:03 |
|---|---|
| Airport | Tenzing-Hillary Airport (VNLK) |
Arrival
| Time | 2026-02-06 11:26 |
|---|---|
| Airport | Tenzing-Hillary Airport (VNLK) |
| Time | Latitude | Longitude | Altitude | Speed | Heading |
|---|---|---|---|---|---|
| 2026-02-06 11:03 | 27.83088 | 86.75124 | 12951 ft | 140 kts | 59° |
| 2026-02-06 11:03 | 27.84161 | 86.76951 | 13492 ft | 140 kts | 50° |
| 2026-02-06 11:04 | 27.85466 | 86.78606 | 13977 ft | 139 kts | 46° |
| 2026-02-06 11:04 | 27.86669 | 86.80166 | 14713 ft | 126 kts | 49° |
| 2026-02-06 11:04 | 27.87170 | 86.80983 | 15021 ft | 123 kts | 56° |
| 2026-02-06 11:05 | 27.88038 | 86.82590 | 15753 ft | 120 kts | 53° |
| 2026-02-06 11:05 | 27.89087 | 86.84217 | 16284 ft | 129 kts | 72° |
| 2026-02-06 11:06 | 27.88164 | 86.84014 | 16843 ft | 143 kts | 308° |
| 2026-02-06 11:07 | 27.90069 | 86.83775 | 17082 ft | 155 kts | 28° |
| 2026-02-06 11:07 | 27.91497 | 86.85465 | 17595 ft | 141 kts | 47° |
| 2026-02-06 11:08 | 27.93188 | 86.86158 | 18076 ft | 135 kts | 338° |
| 2026-02-06 11:08 | 27.93817 | 86.85449 | 18349 ft | 128 kts | 298° |
| 2026-02-06 11:08 | 27.94914 | 86.83907 | 18729 ft | 136 kts | 322° |
| 2026-02-06 11:09 | 27.96690 | 86.83124 | 18571 ft | 133 kts | 354° |
| 2026-02-06 11:09 | 27.98462 | 86.83803 | 18146 ft | 137 kts | 42° |
| 2026-02-06 11:10 | 28.00218 | 86.86199 | 17752 ft | 120 kts | 77° |
| 2026-02-06 11:11 | 28.00716 | 86.86045 | 17876 ft | 142 kts | 220° |
| 2026-02-06 11:11 | 27.99251 | 86.84534 | 17437 ft | 134 kts | 227° |
| 2026-02-06 11:11 | 27.98665 | 86.83666 | 17458 ft | 142 kts | 244° |
| 2026-02-06 11:12 | 27.97605 | 86.81952 | 17890 ft | 135 kts | 191° |
| 2026-02-06 11:12 | 27.97382 | 86.83277 | 17356 ft | 139 kts | 22° |
| 2026-02-06 11:13 | 27.98779 | 86.84510 | 17189 ft | 116 kts | 31° |
| 2026-02-06 11:13 | 27.99628 | 86.85216 | 17226 ft | 24 kts | 41° |
| 2026-02-06 11:14 | 27.99659 | 86.85254 | 17230 ft | 0 kts | 64° |
| 2026-02-06 11:16 | 27.99566 | 86.85181 | 17216 ft | 22 kts | 212° |
| 2026-02-06 11:16 | 27.99463 | 86.85096 | 17238 ft | 5 kts | 243° |
| 2026-02-06 11:17 | 27.99409 | 86.85041 | 17229 ft | 0 kts | 225° |
| 2026-02-06 11:18 | 27.97655 | 86.83339 | 17086 ft | 139 kts | 229° |
| 2026-02-06 11:18 | 27.97038 | 86.82484 | 17218 ft | 144 kts | 232° |
| 2026-02-06 11:19 | 27.95475 | 86.82024 | 17710 ft | 140 kts | 124° |
| 2026-02-06 11:19 | 27.95770 | 86.83015 | 17474 ft | 164 kts | 15° |
| 2026-02-06 11:19 | 27.97869 | 86.83438 | 17550 ft | 137 kts | 32° |
| 2026-02-06 11:20 | 27.99034 | 86.84730 | 17130 ft | 101 kts | 29° |
| 2026-02-06 11:20 | 27.99542 | 86.85264 | 17221 ft | 23 kts | 158° |
| 2026-02-06 11:21 | 27.99439 | 86.85102 | 17240 ft | 12 kts | 251° |
| 2026-02-06 11:22 | 27.98472 | 86.84140 | 17070 ft | 112 kts | 229° |
| 2026-02-06 11:22 | 27.97460 | 86.82543 | 17132 ft | 131 kts | 227° |
| 2026-02-06 11:23 | 27.95877 | 86.81942 | 17303 ft | 132 kts | 134° |
| 2026-02-06 11:23 | 27.96044 | 86.82801 | 17162 ft | 140 kts | 18° |
| 2026-02-06 11:23 | 27.97810 | 86.83492 | 17182 ft | 127 kts | 44° |
| 2026-02-06 11:24 | 27.98985 | 86.84695 | 17105 ft | 85 kts | 30° |
| 2026-02-06 11:24 | 27.99120 | 86.84796 | 17149 ft | 0 kts | 34° |
| 2026-02-06 11:25 | 27.68770 | 86.73188 | 9405 ft | 0 kts | 27° |
| 2026-02-06 11:26 | 27.68771 | 86.73189 | 9405 ft | 0 kts | 27° |
| 2026-02-06 11:27 | 27.68770 | 86.73130 | 9403 ft | 15 kts | 251° |
| 2026-02-06 11:28 | 27.68065 | 86.71898 | 9274 ft | 128 kts | 233° |
| 2026-02-06 11:28 | 27.66641 | 86.70773 | 9182 ft | 127 kts | 197° |
| 2026-02-06 11:29 | 27.64846 | 86.70305 | 9071 ft | 133 kts | 197° |
| 2026-02-06 11:29 | 27.63074 | 86.69777 | 8941 ft | 133 kts | 194° |
| 2026-02-06 11:30 | 27.60957 | 86.70181 | 8918 ft | 106 kts | 98° |
| 2026-02-06 11:31 | 27.61862 | 86.70790 | 8886 ft | 109 kts | 327° |
| 2026-02-06 11:31 | 27.62535 | 86.70281 | 8661 ft | 117 kts | 330° |
| 2026-02-06 11:31 | 27.64159 | 86.70033 | 8781 ft | 124 kts | 359° |
| 2026-02-06 11:32 | 27.65801 | 86.70365 | 8949 ft | 121 kts | 11° |
| 2026-02-06 11:32 | 27.67257 | 86.70737 | 8607 ft | 91 kts | 17° |
| 2026-02-06 11:33 | 27.68047 | 86.71706 | 8639 ft | 91 kts | 59° |
| 2026-02-06 11:34 | 27.68749 | 86.73081 | 9384 ft | 27 kts | 68° |
| 2026-02-06 11:34 | 27.68779 | 86.73167 | 9403 ft | 9 kts | 63° |
| 2026-02-06 11:34 | 27.68794 | 86.73162 | 9402 ft | 5 kts | 239° |
| 2026-02-06 11:35 | 27.68274 | 86.72135 | 9316 ft | 122 kts | 243° |
| 2026-02-06 11:35 | 27.66830 | 86.71224 | 9558 ft | 135 kts | 190° |
| 2026-02-06 11:36 | 27.64976 | 86.70752 | 10016 ft | 134 kts | 196° |
| 2026-02-06 11:36 | 27.63128 | 86.70322 | 10284 ft | 139 kts | 188° |
| 2026-02-06 11:37 | 27.61372 | 86.70612 | 10640 ft | 131 kts | 132° |
| 2026-02-06 11:37 | 27.61894 | 86.71928 | 11163 ft | 120 kts | 348° |
| 2026-02-06 11:38 | 27.64231 | 86.70649 | 10331 ft | 112 kts | 353° |
| 2026-02-06 11:38 | 27.64985 | 86.70653 | 10202 ft | 104 kts | 1° |
| 2026-02-06 11:39 | 27.67066 | 86.70961 | 9506 ft | 93 kts | 20° |
| 2026-02-06 11:39 | 27.67601 | 86.71327 | 9349 ft | 86 kts | 36° |
| 2026-02-06 11:40 | 27.68364 | 86.72380 | 9175 ft | 78 kts | 50° |
| 2026-02-06 11:40 | 27.68770 | 86.73188 | 9080 ft | 0 kts | 27° |
| 2026-02-06 11:42 | 27.68768 | 86.73187 | 9404 ft | 2 kts | 27° |
| 2026-02-06 11:43 | 27.68736 | 86.73056 | 9364 ft | 40 kts | 239° |
| 2026-02-06 11:44 | 27.67923 | 86.71675 | 9345 ft | 130 kts | 229° |
| 2026-02-06 11:44 | 27.66147 | 86.71024 | 9823 ft | 139 kts | 191° |
| 2026-02-06 11:44 | 27.65227 | 86.70745 | 10171 ft | 135 kts | 204° |
| 2026-02-06 11:45 | 27.63308 | 86.68764 | 10721 ft | 138 kts | 168° |
| 2026-02-06 11:46 | 27.64036 | 86.70077 | 9820 ft | 145 kts | 348° |
| 2026-02-06 11:46 | 27.64954 | 86.70042 | 9606 ft | 122 kts | 3° |
| 2026-02-06 11:47 | 27.66480 | 86.70370 | 9275 ft | 104 kts | 14° |
| 2026-02-06 11:47 | 27.67711 | 86.71165 | 9029 ft | 106 kts | 46° |
| 2026-02-06 11:48 | 27.68423 | 86.72440 | 9143 ft | 78 kts | 59° |